Terminal Aerodrome Forecast
Issued by NWS Jackson, MS

Home | Current Version | Previous Version | Text Only | Print | Product List | Glossary On
Versions: 1 2 3 4 5 6 7 8 9 10 11 12 13 14 15 16
643
FTUS44 KMEG 281029 AAB
TAFTUP
TAF AMD
KTUP 281029Z 2810/2906 19007KT P6SM VCSH BKN012 OVC025
     FM281300 23007KT 6SM -SHRA BR VCTS BKN012 OVC020CB
     FM281700 25008KT 5SM TSRA BR BKN025CB OVC035
     FM282200 23005KT P6SM VCSH SCT030 BKN045=

USA.gov is the U.S. government's official web portal to all federal, state and local government web resources and services.